sensor_id;sensor_type;location;lat;lon;timestamp;P1;durP1;ratioP1;P2;durP2;ratioP2
70505;SDS011;58032;49.820;6.274;2024-01-15T00:00:11;17.63;;;4.47;;
70505;SDS011;58032;49.820;6.274;2024-01-15T00:02:38;18.77;;;4.57;;
70505;SDS011;58032;49.820;6.274;2024-01-15T00:05:05;9.85;;;2.15;;
70505;SDS011;58032;49.820;6.274;2024-01-15T00:07:32;11.75;;;3.22;;
70505;SDS011;58032;49.820;6.274;2024-01-15T00:09:59;24.50;;;5.35;;
70505;SDS011;58032;49.820;6.274;2024-01-15T00:12:26;21.53;;;5.57;;
70505;SDS011;58032;49.820;6.274;2024-01-15T00:14:53;20.20;;;5.93;;
70505;SDS011;58032;49.820;6.274;2024-01-15T00:17:20;11.00;;;3.67;;
70505;SDS011;58032;49.820;6.274;2024-01-15T00:19:46;16.23;;;4.20;;
70505;SDS011;58032;49.820;6.274;2024-01-15T00:22:13;20.75;;;5.65;;
70505;SDS011;58032;49.820;6.274;2024-01-15T00:24:40;18.87;;;4.73;;
70505;SDS011;58032;49.820;6.274;2024-01-15T00:27:07;27.00;;;7.00;;
70505;SDS011;58032;49.820;6.274;2024-01-15T00:29:33;9.98;;;3.05;;
70505;SDS011;58032;49.820;6.274;2024-01-15T00:32:01;23.67;;;6.68;;
70505;SDS011;58032;49.820;6.274;2024-01-15T00:34:28;20.90;;;4.70;;
70505;SDS011;58032;49.820;6.274;2024-01-15T00:36:54;15.77;;;5.63;;
70505;SDS011;58032;49.820;6.274;2024-01-15T00:39:21;20.67;;;6.15;;
70505;SDS011;58032;49.820;6.274;2024-01-15T00:41:48;23.02;;;5.20;;
70505;SDS011;58032;49.820;6.274;2024-01-15T00:44:15;16.65;;;4.40;;
70505;SDS011;58032;49.820;6.274;2024-01-15T00:46:45;17.40;;;4.30;;
70505;SDS011;58032;49.820;6.274;2024-01-15T00:49:12;17.33;;;5.93;;
70505;SDS011;58032;49.820;6.274;2024-01-15T00:51:40;16.95;;;5.72;;
70505;SDS011;58032;49.820;6.274;2024-01-15T00:54:06;20.83;;;5.20;;
70505;SDS011;58032;49.820;6.274;2024-01-15T00:56:33;10.43;;;2.53;;
70505;SDS011;58032;49.820;6.274;2024-01-15T00:59:00;13.35;;;4.45;;
70505;SDS011;58032;49.820;6.274;2024-01-15T01:01:27;24.83;;;5.10;;
70505;SDS011;58032;49.820;6.274;2024-01-15T01:03:54;19.52;;;4.32;;
70505;SDS011;58032;49.820;6.274;2024-01-15T01:06:21;17.45;;;5.18;;
70505;SDS011;58032;49.820;6.274;2024-01-15T01:08:48;21.45;;;5.40;;
70505;SDS011;58032;49.820;6.274;2024-01-15T01:11:15;16.48;;;4.75;;
70505;SDS011;58032;49.820;6.274;2024-01-15T01:13:42;15.40;;;4.83;;
70505;SDS011;58032;49.820;6.274;2024-01-15T01:16:09;22.10;;;5.90;;
70505;SDS011;58032;49.820;6.274;2024-01-15T01:18:35;15.02;;;4.50;;
70505;SDS011;58032;49.820;6.274;2024-01-15T01:21:03;12.43;;;4.38;;
70505;SDS011;58032;49.820;6.274;2024-01-15T01:23:29;17.30;;;4.70;;
70505;SDS011;58032;49.820;6.274;2024-01-15T01:25:56;21.47;;;5.20;;
70505;SDS011;58032;49.820;6.274;2024-01-15T01:28:23;13.40;;;3.75;;
70505;SDS011;58032;49.820;6.274;2024-01-15T01:30:50;24.83;;;6.38;;
70505;SDS011;58032;49.820;6.274;2024-01-15T01:33:17;21.80;;;5.70;;
70505;SDS011;58032;49.820;6.274;2024-01-15T01:35:44;14.40;;;4.35;;
70505;SDS011;58032;49.820;6.274;2024-01-15T01:38:11;23.57;;;6.03;;
70505;SDS011;58032;49.820;6.274;2024-01-15T01:40:38;14.63;;;5.22;;
70505;SDS011;58032;49.820;6.274;2024-01-15T01:43:05;24.00;;;5.65;;
70505;SDS011;58032;49.820;6.274;2024-01-15T01:45:32;19.98;;;5.70;;
70505;SDS011;58032;49.820;6.274;2024-01-15T01:47:59;15.73;;;4.80;;
70505;SDS011;58032;49.820;6.274;2024-01-15T01:50:26;22.10;;;5.13;;
70505;SDS011;58032;49.820;6.274;2024-01-15T01:52:54;26.23;;;7.53;;
70505;SDS011;58032;49.820;6.274;2024-01-15T01:55:21;27.08;;;6.55;;
70505;SDS011;58032;49.820;6.274;2024-01-15T01:57:48;22.67;;;5.70;;
70505;SDS011;58032;49.820;6.274;2024-01-15T02:00:15;24.50;;;6.82;;
70505;SDS011;58032;49.820;6.274;2024-01-15T02:02:43;22.00;;;6.23;;
70505;SDS011;58032;49.820;6.274;2024-01-15T02:05:10;26.70;;;5.57;;
70505;SDS011;58032;49.820;6.274;2024-01-15T02:07:37;29.88;;;6.95;;
70505;SDS011;58032;49.820;6.274;2024-01-15T02:10:04;29.75;;;7.25;;
70505;SDS011;58032;49.820;6.274;2024-01-15T02:12:32;28.00;;;7.00;;
70505;SDS011;58032;49.820;6.274;2024-01-15T02:14:59;21.80;;;5.77;;
70505;SDS011;58032;49.820;6.274;2024-01-15T02:17:26;26.75;;;5.72;;
70505;SDS011;58032;49.820;6.274;2024-01-15T02:19:53;22.83;;;6.13;;
70505;SDS011;58032;49.820;6.274;2024-01-15T02:22:20;20.73;;;5.47;;
70505;SDS011;58032;49.820;6.274;2024-01-15T02:24:46;27.50;;;7.00;;
70505;SDS011;58032;49.820;6.274;2024-01-15T02:27:13;20.70;;;4.97;;
70505;SDS011;58032;49.820;6.274;2024-01-15T02:29:40;38.88;;;7.25;;
70505;SDS011;58032;49.820;6.274;2024-01-15T02:32:08;28.63;;;6.45;;
70505;SDS011;58032;49.820;6.274;2024-01-15T02:34:35;28.00;;;5.88;;
70505;SDS011;58032;49.820;6.274;2024-01-15T02:37:02;22.50;;;5.95;;
70505;SDS011;58032;49.820;6.274;2024-01-15T02:39:29;28.10;;;7.63;;
70505;SDS011;58032;49.820;6.274;2024-01-15T02:41:56;22.38;;;6.32;;
70505;SDS011;58032;49.820;6.274;2024-01-15T02:44:24;19.55;;;6.40;;
70505;SDS011;58032;49.820;6.274;2024-01-15T02:46:52;23.55;;;7.35;;
70505;SDS011;58032;49.820;6.274;2024-01-15T02:49:19;25.30;;;6.65;;
70505;SDS011;58032;49.820;6.274;2024-01-15T02:51:45;20.43;;;5.40;;
70505;SDS011;58032;49.820;6.274;2024-01-15T02:54:13;32.03;;;7.38;;
70505;SDS011;58032;49.820;6.274;2024-01-15T02:56:40;25.70;;;7.13;;
70505;SDS011;58032;49.820;6.274;2024-01-15T02:59:07;27.40;;;8.25;;
70505;SDS011;58032;49.820;6.274;2024-01-15T03:01:33;21.27;;;6.63;;
70505;SDS011;58032;49.820;6.274;2024-01-15T03:04:00;26.00;;;7.77;;
70505;SDS011;58032;49.820;6.274;2024-01-15T03:06:27;24.10;;;6.88;;
70505;SDS011;58032;49.820;6.274;2024-01-15T03:08:54;28.13;;;8.20;;
70505;SDS011;58032;49.820;6.274;2024-01-15T03:11:21;20.80;;;7.03;;
70505;SDS011;58032;49.820;6.274;2024-01-15T03:13:47;25.75;;;8.55;;
70505;SDS011;58032;49.820;6.274;2024-01-15T03:16:14;21.87;;;6.53;;
70505;SDS011;58032;49.820;6.274;2024-01-15T03:18:41;30.38;;;7.70;;
70505;SDS011;58032;49.820;6.274;2024-01-15T03:21:08;15.55;;;4.97;;
70505;SDS011;58032;49.820;6.274;2024-01-15T03:23:34;27.63;;;6.43;;
70505;SDS011;58032;49.820;6.274;2024-01-15T03:26:01;29.38;;;8.80;;
70505;SDS011;58032;49.820;6.274;2024-01-15T03:28:28;19.17;;;5.87;;
70505;SDS011;58032;49.820;6.274;2024-01-15T03:30:57;31.00;;;8.63;;
70505;SDS011;58032;49.820;6.274;2024-01-15T03:33:23;22.23;;;6.30;;
70505;SDS011;58032;49.820;6.274;2024-01-15T03:35:50;19.25;;;5.15;;
70505;SDS011;58032;49.820;6.274;2024-01-15T03:38:17;25.88;;;8.32;;
70505;SDS011;58032;49.820;6.274;2024-01-15T03:40:44;23.53;;;7.00;;
70505;SDS011;58032;49.820;6.274;2024-01-15T03:43:11;20.75;;;5.15;;
70505;SDS011;58032;49.820;6.274;2024-01-15T03:45:38;26.98;;;7.20;;
70505;SDS011;58032;49.820;6.274;2024-01-15T03:48:04;26.40;;;7.63;;
70505;SDS011;58032;49.820;6.274;2024-01-15T03:50:31;29.27;;;7.90;;
70505;SDS011;58032;49.820;6.274;2024-01-15T03:52:58;19.73;;;5.87;;
70505;SDS011;58032;49.820;6.274;2024-01-15T03:55:25;15.77;;;5.43;;
70505;SDS011;58032;49.820;6.274;2024-01-15T03:57:51;17.92;;;4.18;;
70505;SDS011;58032;49.820;6.274;2024-01-15T04:00:18;29.95;;;7.68;;
70505;SDS011;58032;49.820;6.274;2024-01-15T04:02:45;21.67;;;6.05;;
70505;SDS011;58032;49.820;6.274;2024-01-15T04:05:12;30.13;;;7.87;;
70505;SDS011;58032;49.820;6.274;2024-01-15T04:07:39;22.88;;;5.47;;
70505;SDS011;58032;49.820;6.274;2024-01-15T04:10:05;11.15;;;3.78;;
70505;SDS011;58032;49.820;6.274;2024-01-15T04:12:32;18.27;;;6.05;;
70505;SDS011;58032;49.820;6.274;2024-01-15T04:14:59;24.85;;;7.38;;
70505;SDS011;58032;49.820;6.274;2024-01-15T04:17:26;23.30;;;6.57;;
70505;SDS011;58032;49.820;6.274;2024-01-15T04:19:53;20.60;;;6.18;;
70505;SDS011;58032;49.820;6.274;2024-01-15T04:22:20;22.38;;;6.88;;
70505;SDS011;58032;49.820;6.274;2024-01-15T04:24:47;16.35;;;6.60;;
70505;SDS011;58032;49.820;6.274;2024-01-15T04:27:14;17.38;;;5.15;;
70505;SDS011;58032;49.820;6.274;2024-01-15T04:29:41;22.17;;;8.17;;
70505;SDS011;58032;49.820;6.274;2024-01-15T04:32:07;16.30;;;5.55;;
70505;SDS011;58032;49.820;6.274;2024-01-15T04:34:34;24.48;;;7.38;;
70505;SDS011;58032;49.820;6.274;2024-01-15T04:37:01;19.67;;;5.30;;
70505;SDS011;58032;49.820;6.274;2024-01-15T04:39:28;20.75;;;5.78;;
70505;SDS011;58032;49.820;6.274;2024-01-15T04:41:55;20.70;;;6.67;;
70505;SDS011;58032;49.820;6.274;2024-01-15T04:44:22;17.73;;;5.88;;
70505;SDS011;58032;49.820;6.274;2024-01-15T04:46:48;18.35;;;5.63;;
70505;SDS011;58032;49.820;6.274;2024-01-15T04:49:15;24.38;;;6.15;;
70505;SDS011;58032;49.820;6.274;2024-01-15T04:51:42;27.83;;;7.00;;
70505;SDS011;58032;49.820;6.274;2024-01-15T04:54:09;22.00;;;6.30;;
70505;SDS011;58032;49.820;6.274;2024-01-15T04:56:36;21.73;;;5.72;;
70505;SDS011;58032;49.820;6.274;2024-01-15T04:59:03;26.33;;;6.97;;
70505;SDS011;58032;49.820;6.274;2024-01-15T05:01:30;14.10;;;4.40;;
70505;SDS011;58032;49.820;6.274;2024-01-15T05:03:57;16.40;;;5.00;;
70505;SDS011;58032;49.820;6.274;2024-01-15T05:06:25;17.13;;;5.80;;
70505;SDS011;58032;49.820;6.274;2024-01-15T05:08:52;19.08;;;5.13;;
70505;SDS011;58032;49.820;6.274;2024-01-15T05:11:19;18.90;;;5.32;;
70505;SDS011;58032;49.820;6.274;2024-01-15T05:13:46;17.55;;;5.00;;
70505;SDS011;58032;49.820;6.274;2024-01-15T05:16:12;18.58;;;5.10;;
70505;SDS011;58032;49.820;6.274;2024-01-15T05:18:39;15.57;;;4.60;;
70505;SDS011;58032;49.820;6.274;2024-01-15T05:21:06;14.60;;;4.95;;
70505;SDS011;58032;49.820;6.274;2024-01-15T05:23:33;16.25;;;5.22;;
70505;SDS011;58032;49.820;6.274;2024-01-15T05:26:00;21.10;;;5.38;;
70505;SDS011;58032;49.820;6.274;2024-01-15T05:28:27;15.30;;;4.60;;
70505;SDS011;58032;49.820;6.274;2024-01-15T05:30:54;19.50;;;6.50;;
70505;SDS011;58032;49.820;6.274;2024-01-15T05:33:22;11.15;;;3.40;;
70505;SDS011;58032;49.820;6.274;2024-01-15T05:35:49;11.95;;;4.07;;
70505;SDS011;58032;49.820;6.274;2024-01-15T05:38:17;15.93;;;4.88;;
70505;SDS011;58032;49.820;6.274;2024-01-15T05:40:43;13.38;;;3.95;;
70505;SDS011;58032;49.820;6.274;2024-01-15T05:43:10;16.07;;;4.70;;
70505;SDS011;58032;49.820;6.274;2024-01-15T05:45:38;13.30;;;4.85;;
70505;SDS011;58032;49.820;6.274;2024-01-15T05:48:04;16.20;;;5.07;;
70505;SDS011;58032;49.820;6.274;2024-01-15T05:50:31;6.53;;;2.15;;
70505;SDS011;58032;49.820;6.274;2024-01-15T05:52:58;15.48;;;4.47;;
70505;SDS011;58032;49.820;6.274;2024-01-15T05:55:25;14.73;;;4.67;;
70505;SDS011;58032;49.820;6.274;2024-01-15T05:57:52;14.07;;;4.68;;
70505;SDS011;58032;49.820;6.274;2024-01-15T06:00:18;9.75;;;3.35;;
70505;SDS011;58032;49.820;6.274;2024-01-15T06:02:45;15.13;;;4.43;;
70505;SDS011;58032;49.820;6.274;2024-01-15T06:05:12;13.35;;;5.25;;
70505;SDS011;58032;49.820;6.274;2024-01-15T06:07:39;15.90;;;4.93;;
70505;SDS011;58032;49.820;6.274;2024-01-15T06:10:06;17.42;;;5.25;;
70505;SDS011;58032;49.820;6.274;2024-01-15T06:12:33;17.75;;;5.10;;
70505;SDS011;58032;49.820;6.274;2024-01-15T06:15:00;18.38;;;5.85;;
70505;SDS011;58032;49.820;6.274;2024-01-15T06:17:27;17.33;;;4.50;;
70505;SDS011;58032;49.820;6.274;2024-01-15T06:19:53;15.73;;;5.47;;
70505;SDS011;58032;49.820;6.274;2024-01-15T06:22:20;14.75;;;4.95;;
70505;SDS011;58032;49.820;6.274;2024-01-15T06:24:47;16.42;;;6.03;;
70505;SDS011;58032;49.820;6.274;2024-01-15T06:27:14;16.70;;;6.07;;
70505;SDS011;58032;49.820;6.274;2024-01-15T06:29:44;11.85;;;3.88;;
70505;SDS011;58032;49.820;6.274;2024-01-15T06:32:12;16.27;;;4.93;;
70505;SDS011;58032;49.820;6.274;2024-01-15T06:34:39;18.80;;;5.65;;
70505;SDS011;58032;49.820;6.274;2024-01-15T06:37:06;18.63;;;6.28;;
70505;SDS011;58032;49.820;6.274;2024-01-15T06:39:33;21.35;;;6.38;;
70505;SDS011;58032;49.820;6.274;2024-01-15T06:41:59;15.77;;;5.25;;
70505;SDS011;58032;49.820;6.274;2024-01-15T06:44:26;22.20;;;6.13;;
70505;SDS011;58032;49.820;6.274;2024-01-15T06:46:53;14.45;;;5.05;;
70505;SDS011;58032;49.820;6.274;2024-01-15T06:49:23;19.38;;;6.30;;
70505;SDS011;58032;49.820;6.274;2024-01-15T06:51:50;16.77;;;5.63;;
70505;SDS011;58032;49.820;6.274;2024-01-15T06:54:17;22.40;;;6.03;;
70505;SDS011;58032;49.820;6.274;2024-01-15T06:56:44;17.93;;;5.57;;
70505;SDS011;58032;49.820;6.274;2024-01-15T06:59:11;15.82;;;5.00;;
70505;SDS011;58032;49.820;6.274;2024-01-15T07:01:37;19.13;;;6.13;;
70505;SDS011;58032;49.820;6.274;2024-01-15T07:04:04;24.70;;;6.43;;
70505;SDS011;58032;49.820;6.274;2024-01-15T07:06:31;21.92;;;7.07;;
70505;SDS011;58032;49.820;6.274;2024-01-15T07:08:58;21.47;;;6.73;;
70505;SDS011;58032;49.820;6.274;2024-01-15T07:11:25;15.43;;;6.07;;
70505;SDS011;58032;49.820;6.274;2024-01-15T07:13:51;18.58;;;5.80;;
70505;SDS011;58032;49.820;6.274;2024-01-15T07:16:18;24.98;;;6.93;;
70505;SDS011;58032;49.820;6.274;2024-01-15T07:18:47;22.48;;;7.03;;
70505;SDS011;58032;49.820;6.274;2024-01-15T07:21:14;23.27;;;6.30;;
70505;SDS011;58032;49.820;6.274;2024-01-15T07:23:41;10.30;;;3.53;;
70505;SDS011;58032;49.820;6.274;2024-01-15T07:26:09;20.42;;;7.03;;
70505;SDS011;58032;49.820;6.274;2024-01-15T07:28:36;19.15;;;6.25;;
70505;SDS011;58032;49.820;6.274;2024-01-15T07:31:02;20.83;;;6.45;;
70505;SDS011;58032;49.820;6.274;2024-01-15T07:33:30;22.43;;;7.20;;
70505;SDS011;58032;49.820;6.274;2024-01-15T07:35:57;19.27;;;5.88;;
70505;SDS011;58032;49.820;6.274;2024-01-15T07:38:26;23.98;;;6.78;;
70505;SDS011;58032;49.820;6.274;2024-01-15T07:40:52;18.63;;;5.07;;
70505;SDS011;58032;49.820;6.274;2024-01-15T07:43:20;22.10;;;6.57;;
70505;SDS011;58032;49.820;6.274;2024-01-15T07:45:47;19.00;;;5.73;;
70505;SDS011;58032;49.820;6.274;2024-01-15T07:48:13;20.30;;;6.05;;
70505;SDS011;58032;49.820;6.274;2024-01-15T07:50:40;20.08;;;6.35;;
70505;SDS011;58032;49.820;6.274;2024-01-15T07:53:07;20.45;;;7.32;;
70505;SDS011;58032;49.820;6.274;2024-01-15T07:55:34;18.10;;;5.78;;
70505;SDS011;58032;49.820;6.274;2024-01-15T07:58:01;16.90;;;5.83;;
70505;SDS011;58032;49.820;6.274;2024-01-15T08:00:28;18.67;;;5.78;;
70505;SDS011;58032;49.820;6.274;2024-01-15T08:02:55;22.02;;;6.20;;
70505;SDS011;58032;49.820;6.274;2024-01-15T08:05:22;17.98;;;5.60;;
70505;SDS011;58032;49.820;6.274;2024-01-15T08:07:49;10.32;;;4.07;;
70505;SDS011;58032;49.820;6.274;2024-01-15T08:10:15;14.97;;;4.57;;
70505;SDS011;58032;49.820;6.274;2024-01-15T08:12:42;15.07;;;5.20;;
70505;SDS011;58032;49.820;6.274;2024-01-15T08:15:09;18.60;;;4.95;;
70505;SDS011;58032;49.820;6.274;2024-01-15T08:17:36;17.77;;;6.82;;
70505;SDS011;58032;49.820;6.274;2024-01-15T08:20:03;17.08;;;5.47;;
70505;SDS011;58032;49.820;6.274;2024-01-15T08:22:31;20.03;;;5.97;;
70505;SDS011;58032;49.820;6.274;2024-01-15T08:24:58;15.05;;;4.30;;
70505;SDS011;58032;49.820;6.274;2024-01-15T08:27:25;16.73;;;5.20;;
70505;SDS011;58032;49.820;6.274;2024-01-15T08:29:52;20.05;;;5.20;;
70505;SDS011;58032;49.820;6.274;2024-01-15T08:32:18;13.32;;;4.03;;
70505;SDS011;58032;49.820;6.274;2024-01-15T08:34:45;20.20;;;6.50;;
70505;SDS011;58032;49.820;6.274;2024-01-15T08:37:14;16.80;;;5.63;;
70505;SDS011;58032;49.820;6.274;2024-01-15T08:39:41;12.57;;;5.13;;
70505;SDS011;58032;49.820;6.274;2024-01-15T08:42:08;20.20;;;5.38;;
70505;SDS011;58032;49.820;6.274;2024-01-15T08:44:34;15.50;;;5.32;;
70505;SDS011;58032;49.820;6.274;2024-01-15T08:47:01;15.97;;;4.87;;
70505;SDS011;58032;49.820;6.274;2024-01-15T08:49:29;19.85;;;6.00;;
70505;SDS011;58032;49.820;6.274;2024-01-15T08:51:56;16.20;;;5.57;;
70505;SDS011;58032;49.820;6.274;2024-01-15T08:54:23;21.70;;;5.75;;
70505;SDS011;58032;49.820;6.274;2024-01-15T08:56:49;13.70;;;5.53;;
70505;SDS011;58032;49.820;6.274;2024-01-15T08:59:16;18.83;;;5.50;;
70505;SDS011;58032;49.820;6.274;2024-01-15T09:01:43;13.20;;;5.72;;
70505;SDS011;58032;49.820;6.274;2024-01-15T09:04:10;18.38;;;5.57;;
70505;SDS011;58032;49.820;6.274;2024-01-15T09:06:36;13.38;;;3.65;;
70505;SDS011;58032;49.820;6.274;2024-01-15T09:09:04;13.88;;;4.78;;
70505;SDS011;58032;49.820;6.274;2024-01-15T09:11:31;18.40;;;5.40;;
70505;SDS011;58032;49.820;6.274;2024-01-15T09:13:58;16.02;;;5.03;;
70505;SDS011;58032;49.820;6.274;2024-01-15T09:16:25;15.75;;;4.22;;
70505;SDS011;58032;49.820;6.274;2024-01-15T09:18:52;10.95;;;2.92;;
70505;SDS011;58032;49.820;6.274;2024-01-15T09:21:19;10.18;;;3.47;;
70505;SDS011;58032;49.820;6.274;2024-01-15T09:23:46;10.47;;;2.43;;
70505;SDS011;58032;49.820;6.274;2024-01-15T09:26:13;15.32;;;3.95;;
70505;SDS011;58032;49.820;6.274;2024-01-15T09:28:40;14.20;;;5.35;;
70505;SDS011;58032;49.820;6.274;2024-01-15T09:31:06;13.00;;;4.32;;
70505;SDS011;58032;49.820;6.274;2024-01-15T09:33:33;11.30;;;4.05;;
70505;SDS011;58032;49.820;6.274;2024-01-15T09:36:01;16.27;;;4.23;;
70505;SDS011;58032;49.820;6.274;2024-01-15T09:38:28;12.38;;;4.07;;
70505;SDS011;58032;49.820;6.274;2024-01-15T09:40:55;15.07;;;4.63;;
70505;SDS011;58032;49.820;6.274;2024-01-15T09:43:22;8.90;;;2.50;;
70505;SDS011;58032;49.820;6.274;2024-01-15T09:45:49;10.07;;;3.53;;
70505;SDS011;58032;49.820;6.274;2024-01-15T09:48:17;16.63;;;4.43;;
70505;SDS011;58032;49.820;6.274;2024-01-15T09:50:44;14.32;;;4.72;;
70505;SDS011;58032;49.820;6.274;2024-01-15T09:53:11;12.43;;;4.18;;
70505;SDS011;58032;49.820;6.274;2024-01-15T09:55:40;11.43;;;4.28;;
70505;SDS011;58032;49.820;6.274;2024-01-15T09:58:07;9.75;;;2.67;;
70505;SDS011;58032;49.820;6.274;2024-01-15T10:00:34;12.50;;;3.63;;
70505;SDS011;58032;49.820;6.274;2024-01-15T10:03:05;15.88;;;4.72;;
70505;SDS011;58032;49.820;6.274;2024-01-15T10:05:33;12.02;;;3.67;;
70505;SDS011;58032;49.820;6.274;2024-01-15T10:08:00;14.10;;;4.90;;
70505;SDS011;58032;49.820;6.274;2024-01-15T10:10:27;18.05;;;5.57;;
70505;SDS011;58032;49.820;6.274;2024-01-15T10:12:54;15.20;;;3.63;;
70505;SDS011;58032;49.820;6.274;2024-01-15T10:15:22;12.52;;;4.32;;
70505;SDS011;58032;49.820;6.274;2024-01-15T10:17:50;11.43;;;4.20;;
70505;SDS011;58032;49.820;6.274;2024-01-15T10:20:17;14.65;;;4.22;;
70505;SDS011;58032;49.820;6.274;2024-01-15T10:22:44;12.45;;;4.45;;
70505;SDS011;58032;49.820;6.274;2024-01-15T10:25:14;14.57;;;4.40;;
70505;SDS011;58032;49.820;6.274;2024-01-15T10:27:42;13.27;;;4.88;;
70505;SDS011;58032;49.820;6.274;2024-01-15T10:30:09;13.48;;;4.82;;
70505;SDS011;58032;49.820;6.274;2024-01-15T10:32:37;12.75;;;4.75;;
70505;SDS011;58032;49.820;6.274;2024-01-15T10:35:04;13.45;;;3.65;;
70505;SDS011;58032;49.820;6.274;2024-01-15T10:37:34;13.10;;;4.40;;
70505;SDS011;58032;49.820;6.274;2024-01-15T10:40:02;15.02;;;5.10;;
70505;SDS011;58032;49.820;6.274;2024-01-15T10:42:31;7.15;;;2.17;;
70505;SDS011;58032;49.820;6.274;2024-01-15T10:44:58;16.42;;;5.40;;
70505;SDS011;58032;49.820;6.274;2024-01-15T10:47:25;7.35;;;2.85;;
70505;SDS011;58032;49.820;6.274;2024-01-15T10:49:52;8.70;;;3.13;;
70505;SDS011;58032;49.820;6.274;2024-01-15T10:52:20;22.80;;;6.28;;
70505;SDS011;58032;49.820;6.274;2024-01-15T10:54:47;33.20;;;10.93;;
70505;SDS011;58032;49.820;6.274;2024-01-15T10:57:15;19.65;;;6.28;;
70505;SDS011;58032;49.820;6.274;2024-01-15T10:59:43;20.10;;;6.43;;
70505;SDS011;58032;49.820;6.274;2024-01-15T11:02:10;17.83;;;5.57;;
70505;SDS011;58032;49.820;6.274;2024-01-15T11:04:37;16.10;;;5.80;;
70505;SDS011;58032;49.820;6.274;2024-01-15T11:07:04;17.02;;;5.80;;
70505;SDS011;58032;49.820;6.274;2024-01-15T11:09:32;17.15;;;5.50;;
70505;SDS011;58032;49.820;6.274;2024-01-15T11:12:11;10.02;;;3.58;;
70505;SDS011;58032;49.820;6.274;2024-01-15T11:14:42;31.33;;;5.13;;
70505;SDS011;58032;49.820;6.274;2024-01-15T11:17:12;18.17;;;6.35;;
70505;SDS011;58032;49.820;6.274;2024-01-15T11:19:43;16.83;;;6.25;;
70505;SDS011;58032;49.820;6.274;2024-01-15T11:24:57;5.80;;;2.47;;
70505;SDS011;58032;49.820;6.274;2024-01-15T11:27:40;14.43;;;5.73;;
70505;SDS011;58032;49.820;6.274;2024-01-15T11:30:08;9.95;;;3.83;;
70505;SDS011;58032;49.820;6.274;2024-01-15T11:32:36;16.65;;;4.53;;
70505;SDS011;58032;49.820;6.274;2024-01-15T11:35:03;9.55;;;3.72;;
70505;SDS011;58032;49.820;6.274;2024-01-15T11:40:18;13.60;;;4.97;;
70505;SDS011;58032;49.820;6.274;2024-01-15T11:42:45;13.65;;;4.78;;
70505;SDS011;58032;49.820;6.274;2024-01-15T11:45:13;13.70;;;4.88;;
70505;SDS011;58032;49.820;6.274;2024-01-15T11:50:26;14.95;;;5.53;;
70505;SDS011;58032;49.820;6.274;2024-01-15T11:53:01;15.83;;;5.57;;
70505;SDS011;58032;49.820;6.274;2024-01-15T11:55:32;9.15;;;3.80;;
70505;SDS011;58032;49.820;6.274;2024-01-15T11:58:01;17.83;;;5.45;;
70505;SDS011;58032;49.820;6.274;2024-01-15T12:00:28;11.82;;;3.42;;
70505;SDS011;58032;49.820;6.274;2024-01-15T12:02:55;8.95;;;3.38;;
70505;SDS011;58032;49.820;6.274;2024-01-15T12:05:25;9.60;;;3.10;;
70505;SDS011;58032;49.820;6.274;2024-01-15T12:07:52;10.07;;;3.92;;
70505;SDS011;58032;49.820;6.274;2024-01-15T12:10:19;7.47;;;1.77;;
70505;SDS011;58032;49.820;6.274;2024-01-15T12:12:51;7.15;;;2.65;;
70505;SDS011;58032;49.820;6.274;2024-01-15T12:15:20;6.72;;;1.85;;
70505;SDS011;58032;49.820;6.274;2024-01-15T12:17:47;5.27;;;1.47;;
70505;SDS011;58032;49.820;6.274;2024-01-15T12:20:14;5.63;;;1.73;;
70505;SDS011;58032;49.820;6.274;2024-01-15T12:22:42;5.00;;;1.30;;
70505;SDS011;58032;49.820;6.274;2024-01-15T12:25:13;4.75;;;1.23;;
70505;SDS011;58032;49.820;6.274;2024-01-15T12:27:40;2.60;;;0.70;;
70505;SDS011;58032;49.820;6.274;2024-01-15T12:30:10;3.15;;;0.60;;
70505;SDS011;58032;49.820;6.274;2024-01-15T12:32:37;2.55;;;0.73;;
70505;SDS011;58032;49.820;6.274;2024-01-15T12:35:06;1.55;;;0.32;;
70505;SDS011;58032;49.820;6.274;2024-01-15T12:37:36;3.95;;;0.70;;
70505;SDS011;58032;49.820;6.274;2024-01-15T12:40:04;2.43;;;0.60;;
70505;SDS011;58032;49.820;6.274;2024-01-15T12:42:33;3.22;;;1.75;;
70505;SDS011;58032;49.820;6.274;2024-01-15T12:45:00;2.35;;;0.85;;
70505;SDS011;58032;49.820;6.274;2024-01-15T12:47:27;1.77;;;0.40;;
70505;SDS011;58032;49.820;6.274;2024-01-15T12:49:54;4.35;;;0.75;;
70505;SDS011;58032;49.820;6.274;2024-01-15T12:52:23;4.07;;;1.20;;
70505;SDS011;58032;49.820;6.274;2024-01-15T12:54:51;4.57;;;0.77;;
70505;SDS011;58032;49.820;6.274;2024-01-15T12:57:18;3.95;;;1.15;;
70505;SDS011;58032;49.820;6.274;2024-01-15T12:59:45;2.90;;;0.45;;
70505;SDS011;58032;49.820;6.274;2024-01-15T13:02:12;5.45;;;1.00;;
70505;SDS011;58032;49.820;6.274;2024-01-15T13:04:41;2.33;;;0.60;;
70505;SDS011;58032;49.820;6.274;2024-01-15T13:07:08;3.53;;;0.40;;
70505;SDS011;58032;49.820;6.274;2024-01-15T13:09:35;2.13;;;0.50;;
70505;SDS011;58032;49.820;6.274;2024-01-15T13:12:04;1.90;;;0.80;;
70505;SDS011;58032;49.820;6.274;2024-01-15T13:14:32;2.75;;;0.45;;
70505;SDS011;58032;49.820;6.274;2024-01-15T13:16:59;2.13;;;0.57;;
70505;SDS011;58032;49.820;6.274;2024-01-15T13:19:26;4.40;;;0.22;;
70505;SDS011;58032;49.820;6.274;2024-01-15T13:21:54;0.93;;;0.17;;
70505;SDS011;58032;49.820;6.274;2024-01-15T13:24:21;2.47;;;0.28;;
70505;SDS011;58032;49.820;6.274;2024-01-15T13:26:49;2.33;;;0.38;;
70505;SDS011;58032;49.820;6.274;2024-01-15T13:29:16;1.63;;;0.50;;
70505;SDS011;58032;49.820;6.274;2024-01-15T13:31:43;4.32;;;0.32;;
70505;SDS011;58032;49.820;6.274;2024-01-15T13:34:13;2.08;;;0.57;;
70505;SDS011;58032;49.820;6.274;2024-01-15T13:36:40;2.53;;;0.30;;
70505;SDS011;58032;49.820;6.274;2024-01-15T13:39:07;1.75;;;0.40;;
70505;SDS011;58032;49.820;6.274;2024-01-15T13:41:35;1.57;;;0.20;;
70505;SDS011;58032;49.820;6.274;2024-01-15T13:44:03;2.75;;;0.68;;
70505;SDS011;58032;49.820;6.274;2024-01-15T13:46:30;2.20;;;0.32;;
70505;SDS011;58032;49.820;6.274;2024-01-15T13:48:57;1.60;;;0.30;;
70505;SDS011;58032;49.820;6.274;2024-01-15T13:51:25;3.08;;;0.40;;
70505;SDS011;58032;49.820;6.274;2024-01-15T13:53:52;2.70;;;0.30;;
70505;SDS011;58032;49.820;6.274;2024-01-15T13:56:20;0.90;;;0.10;;
70505;SDS011;58032;49.820;6.274;2024-01-15T13:58:47;3.72;;;0.70;;
70505;SDS011;58032;49.820;6.274;2024-01-15T14:01:16;1.65;;;0.63;;
70505;SDS011;58032;49.820;6.274;2024-01-15T14:03:44;5.95;;;0.68;;
70505;SDS011;58032;49.820;6.274;2024-01-15T14:06:11;1.90;;;0.23;;
70505;SDS011;58032;49.820;6.274;2024-01-15T14:08:38;2.35;;;0.20;;
70505;SDS011;58032;49.820;6.274;2024-01-15T14:11:05;1.77;;;0.50;;
70505;SDS011;58032;49.820;6.274;2024-01-15T14:13:36;4.43;;;0.20;;
70505;SDS011;58032;49.820;6.274;2024-01-15T14:16:03;4.75;;;0.65;;
70505;SDS011;58032;49.820;6.274;2024-01-15T14:18:31;2.80;;;0.50;;
70505;SDS011;58032;49.820;6.274;2024-01-15T14:21:00;3.53;;;0.55;;
70505;SDS011;58032;49.820;6.274;2024-01-15T14:23:27;3.30;;;0.55;;
70505;SDS011;58032;49.820;6.274;2024-01-15T14:25:54;2.10;;;0.52;;
70505;SDS011;58032;49.820;6.274;2024-01-15T14:28:21;1.63;;;0.32;;
70505;SDS011;58032;49.820;6.274;2024-01-15T14:30:47;1.53;;;0.23;;
70505;SDS011;58032;49.820;6.274;2024-01-15T14:33:14;3.33;;;0.63;;
70505;SDS011;58032;49.820;6.274;2024-01-15T14:35:41;2.92;;;0.75;;
70505;SDS011;58032;49.820;6.274;2024-01-15T14:38:09;1.52;;;0.43;;
70505;SDS011;58032;49.820;6.274;2024-01-15T14:40:36;1.73;;;0.30;;
70505;SDS011;58032;49.820;6.274;2024-01-15T14:43:04;4.10;;;0.90;;
70505;SDS011;58032;49.820;6.274;2024-01-15T14:45:30;1.52;;;0.30;;